Time;durP1;ratioP1;P1;durP2;ratioP2;P2;SDS_P1;SDS_P2;PMS_P1;PMS_P2;Temp;Humidity;BMP_temperature;BMP_pressure;BME280_temperature;BME280_humidity;BME280_pressure;Samples;Min_cycle;Max_cycle;Signal;HPM_P1;HPM_P2
2022/02/20 00:01:14;;;;;;;;;;;;;;;9.51;50.15;100608.34;117349;1183;21832;-55
2022/02/20 00:03:42;;;;;;;;;;;;;;;9.47;50.03;100609.61;117357;1186;21820;-57
2022/02/20 00:06:14;;;;;;;;;;;;;;;9.44;49.96;100614.16;117473;1186;21840;-55
2022/02/20 00:08:42;;;;;;;;;;;;;;;9.38;49.77;100610.86;117400;1183;21870;-57
2022/02/20 00:11:11;;;;;;;;;;;;;;;9.32;49.88;100610.88;117391;1182;21827;-54
2022/02/20 00:13:39;;;;;;;;;;;;;;;9.25;49.87;100610.02;117406;1185;23538;-58
2022/02/20 00:16:08;;;;;;;;;;;;;;;9.21;49.70;100610.05;117370;1186;21835;-58
2022/02/20 00:18:36;;;;;;;;;;;;;;;9.16;49.73;100604.98;117415;1187;22918;-59
2022/02/20 00:21:04;;;;;;;;;;;;;;;9.11;49.80;100603.94;117344;1181;22864;-55
2022/02/20 00:23:34;;;;;;;;;;;;;;;9.06;49.66;100613.75;117443;1185;22818;-58
2022/02/20 00:26:02;;;;;;;;;;;;;;;9.03;49.76;100621.28;118613;1183;21848;-58
2022/02/20 00:28:30;;;;;;;;;;;;;;;8.99;49.78;100613.77;117414;1183;22615;-55
2022/02/20 00:30:58;;;;;;;;;;;;;;;8.97;49.85;100614.83;117418;1182;21835;-59
2022/02/20 00:33:27;;;;;;;;;;;;;;;8.95;49.75;100622.70;117395;1185;21838;-59
2022/02/20 00:35:55;;;;;;;;;;;;;;;8.92;49.75;100624.97;117367;1183;23432;-59
2022/02/20 00:38:23;;;;;;;;;;;;;;;8.86;49.81;100625.86;117427;1186;21966;-59
2022/02/20 00:40:52;;;;;;;;;;;;;;;8.79;49.79;100621.33;117411;1183;21851;-57
2022/02/20 00:43:20;;;;;;;;;;;;;;;8.73;49.77;100618.35;117436;1185;23417;-59
2022/02/20 00:45:48;;;;;;;;;;;;;;;8.67;49.87;100629.91;117349;1183;21836;-56
2022/02/20 00:48:20;;;;;;;;;;;;;;;8.64;49.89;100639.35;117317;1182;22715;-56
2022/02/20 00:50:49;;;;;;;;;;;;;;;8.61;49.71;100642.84;117418;1186;21834;-59
2022/02/20 00:53:18;;;;;;;;;;;;;;;8.58;49.88;100642.68;117368;1186;23440;-56
2022/02/20 00:55:46;;;;;;;;;;;;;;;8.55;49.75;100642.15;117374;1182;21836;-58
2022/02/20 00:58:14;;;;;;;;;;;;;;;8.48;49.89;100642.48;117348;1182;23494;-58
2022/02/20 01:00:42;;;;;;;;;;;;;;;8.41;49.75;100642.27;117395;1186;21835;-58
2022/02/20 01:03:10;;;;;;;;;;;;;;;8.37;49.85;100636.86;117441;1182;21864;-56
2022/02/20 01:05:39;;;;;;;;;;;;;;;8.30;49.86;100638.08;117484;1186;23437;-59
2022/02/20 01:08:08;;;;;;;;;;;;;;;8.24;49.99;100640.69;117406;1183;22910;-56
2022/02/20 01:10:36;;;;;;;;;;;;;;;8.20;50.04;100644.36;117358;1183;23413;-59
2022/02/20 01:13:05;;;;;;;;;;;;;;;8.15;49.77;100647.85;117333;1186;21846;-56
2022/02/20 01:15:34;;;;;;;;;;;;;;;8.11;49.93;100654.64;117379;1182;21826;-56
2022/02/20 01:18:02;;;;;;;;;;;;;;;8.08;49.90;100664.95;117433;1182;22908;-58
2022/02/20 01:20:31;;;;;;;;;;;;;;;8.06;49.76;100666.17;117374;1183;21839;-58
2022/02/20 01:22:59;;;;;;;;;;;;;;;8.04;49.92;100667.56;117338;1182;21839;-56
2022/02/20 01:25:27;;;;;;;;;;;;;;;8.03;49.90;100661.63;117321;1185;21872;-59
2022/02/20 01:27:58;;;;;;;;;;;;;;;8.03;49.79;100661.96;117301;1182;21913;-59
2022/02/20 01:30:26;;;;;;;;;;;;;;;8.02;49.82;100663.54;117416;1186;21842;-58
2022/02/20 01:32:54;;;;;;;;;;;;;;;8.01;49.95;100660.55;117313;1185;23435;-58
2022/02/20 01:35:22;;;;;;;;;;;;;;;7.99;49.78;100658.48;117348;1186;21848;-55
2022/02/20 01:37:50;;;;;;;;;;;;;;;7.98;49.85;100656.37;117311;1185;21839;-59
2022/02/20 01:40:19;;;;;;;;;;;;;;;7.97;49.93;100658.29;117384;1185;21828;-58
2022/02/20 01:42:48;;;;;;;;;;;;;;;7.96;49.82;100664.39;117371;1185;22637;-58
2022/02/20 01:45:16;;;;;;;;;;;;;;;7.95;49.84;100664.57;117384;1185;21838;-58
2022/02/20 01:47:44;;;;;;;;;;;;;;;7.95;49.88;100662.66;117350;1186;21839;-59
2022/02/20 01:50:16;;;;;;;;;;;;;;;7.93;49.92;100664.39;117370;1183;21831;-58
2022/02/20 01:52:45;;;;;;;;;;;;;;;7.92;49.99;100668.41;117355;1182;21848;-55
2022/02/20 01:55:13;;;;;;;;;;;;;;;7.92;49.80;100669.45;117439;1185;21835;-55
2022/02/20 01:57:43;;;;;;;;;;;;;;;7.94;49.73;100670.70;117424;1185;21842;-58
2022/02/20 02:00:13;;;;;;;;;;;;;;;7.94;49.77;100673.32;117321;1182;23519;-59
2022/02/20 02:02:41;;;;;;;;;;;;;;;7.91;49.83;100678.02;117384;1183;23515;-59
2022/02/20 02:05:10;;;;;;;;;;;;;;;7.89;49.63;100676.96;117445;1186;21845;-59
2022/02/20 02:07:38;;;;;;;;;;;;;;;7.89;49.94;100677.66;117432;1183;23040;-59
2022/02/20 02:10:06;;;;;;;;;;;;;;;7.88;49.92;100684.65;117418;1183;22997;-57
2022/02/20 02:12:38;;;;;;;;;;;;;;;7.88;49.89;100691.80;117359;1185;21838;-59
2022/02/20 02:15:07;;;;;;;;;;;;;;;7.88;50.00;100705.09;117335;1183;23407;-59
2022/02/20 02:17:35;;;;;;;;;;;;;;;7.88;49.78;100714.35;117410;1185;23651;-56
2022/02/20 02:20:05;;;;;;;;;;;;;;;7.87;49.89;100721.51;117453;1185;22908;-59
2022/02/20 02:22:34;;;;;;;;;;;;;;;7.85;49.76;100719.75;117342;1186;23410;-56
2022/02/20 02:25:02;;;;;;;;;;;;;;;7.83;49.93;100718.86;118048;1182;23458;-59
2022/02/20 02:27:31;;;;;;;;;;;;;;;7.82;49.67;100718.86;117349;1182;21850;-56
2022/02/20 02:30:00;;;;;;;;;;;;;;;7.79;49.90;100726.36;117348;1182;21839;-56
2022/02/20 02:32:29;;;;;;;;;;;;;;;7.78;49.87;100728.09;117431;1186;21843;-59
2022/02/20 02:34:57;;;;;;;;;;;;;;;7.76;50.09;100724.77;117387;1185;21838;-59
2022/02/20 02:37:25;;;;;;;;;;;;;;;7.76;49.98;100724.95;117378;1182;21901;-59
2022/02/20 02:39:53;;;;;;;;;;;;;;;7.74;49.88;100720.39;117364;1182;21861;-59
2022/02/20 02:42:21;;;;;;;;;;;;;;;7.74;49.90;100724.77;117385;1185;21838;-56
2022/02/20 02:44:50;;;;;;;;;;;;;;;7.73;49.79;100719.52;117413;1183;21833;-56
2022/02/20 02:47:18;;;;;;;;;;;;;;;7.73;50.09;100710.95;117296;1186;24140;-59
2022/02/20 02:49:46;;;;;;;;;;;;;;;7.74;49.97;100707.47;117347;1182;22868;-59
2022/02/20 02:52:14;;;;;;;;;;;;;;;7.76;49.95;100709.58;117384;1186;21842;-56
2022/02/20 02:54:42;;;;;;;;;;;;;;;7.78;49.80;100708.70;117422;1183;21915;-55
2022/02/20 02:57:10;;;;;;;;;;;;;;;7.78;49.69;100707.13;117397;1183;23426;-59
2022/02/20 02:59:39;;;;;;;;;;;;;;;7.78;49.92;100713.77;117354;1183;21838;-55
2022/02/20 03:02:08;;;;;;;;;;;;;;;7.78;49.89;100713.60;117259;1185;23433;-57
2022/02/20 03:04:36;;;;;;;;;;;;;;;7.79;49.69;100713.42;117392;1182;21833;-58
2022/02/20 03:07:04;;;;;;;;;;;;;;;7.78;49.68;100716.73;117397;1184;21888;-57
2022/02/20 03:09:35;;;;;;;;;;;;;;;7.77;49.90;100722.85;117339;1186;21841;-55
2022/02/20 03:12:04;;;;;;;;;;;;;;;7.76;49.90;100725.64;117366;1183;22003;-56
2022/02/20 03:14:32;;;;;;;;;;;;;;;7.75;49.85;100733.33;117422;1183;21969;-58
2022/02/20 03:17:01;;;;;;;;;;;;;;;7.77;50.02;100735.94;117397;1182;21848;-55
2022/02/20 03:19:28;;;;;;;;;;;;;;;7.76;49.56;100742.23;117418;1186;23426;-58
2022/02/20 03:21:57;;;;;;;;;;;;;;;7.77;49.77;100744.34;117373;1183;21835;-55
2022/02/20 03:24:26;;;;;;;;;;;;;;;7.76;49.65;100750.80;117467;1183;23537;-58
2022/02/20 03:26:54;;;;;;;;;;;;;;;7.74;49.78;100753.58;117381;1185;22981;-58
2022/02/20 03:29:22;;;;;;;;;;;;;;;7.73;49.93;100750.79;117368;1183;21846;-58
2022/02/20 03:31:50;;;;;;;;;;;;;;;7.72;49.91;100756.04;117360;1183;23416;-55
2022/02/20 03:34:18;;;;;;;;;;;;;;;7.70;49.68;100753.21;117372;1183;23426;-58
2022/02/20 03:36:48;;;;;;;;;;;;;;;7.67;49.94;100750.40;117332;1185;21847;-55
2022/02/20 03:39:18;;;;;;;;;;;;;;;7.64;49.89;100750.38;117381;1185;21847;-57
2022/02/20 03:41:46;;;;;;;;;;;;;;;7.62;49.72;100756.15;117462;1182;21838;-54
2022/02/20 03:44:14;;;;;;;;;;;;;;;7.58;49.88;100758.56;117428;1182;21839;-58
2022/02/20 03:46:42;;;;;;;;;;;;;;;7.54;49.70;100760.45;117361;1185;21849;-54
2022/02/20 03:49:10;;;;;;;;;;;;;;;7.52;49.69;100760.08;117388;1186;21838;-57
2022/02/20 03:51:38;;;;;;;;;;;;;;;7.50;49.64;100761.48;117418;1183;21848;-57
2022/02/20 03:54:06;;;;;;;;;;;;;;;7.47;49.80;100759.90;117447;1185;21817;-58
2022/02/20 03:56:35;;;;;;;;;;;;;;;7.49;49.77;100762.36;117429;1182;21838;-54
2022/02/20 03:59:03;;;;;;;;;;;;;;;7.49;49.94;100766.55;117394;1182;21838;-59
2022/02/20 04:01:31;;;;;;;;;;;;;;;7.51;49.80;100771.96;117400;1182;22719;-57
2022/02/20 04:03:58;;;;;;;;;;;;;;;7.52;49.82;100774.92;117340;1186;23085;-55
2022/02/20 04:06:26;;;;;;;;;;;;;;;7.52;49.78;100780.88;117381;1182;21825;-57
2022/02/20 04:08:55;;;;;;;;;;;;;;;7.52;49.95;100784.70;117410;1185;21839;-54
2022/02/20 04:11:23;;;;;;;;;;;;;;;7.51;49.83;100785.23;117351;1185;21835;-55
2022/02/20 04:13:52;;;;;;;;;;;;;;;7.51;49.62;100788.55;117468;1185;21839;-58
2022/02/20 04:16:21;;;;;;;;;;;;;;;7.51;49.92;100790.12;117411;1187;21835;-58
2022/02/20 04:18:49;;;;;;;;;;;;;;;7.51;49.58;100791.88;117389;1182;21829;-58
2022/02/20 04:21:17;;;;;;;;;;;;;;;7.48;49.86;100794.30;117360;1185;21835;-58
2022/02/20 04:23:46;;;;;;;;;;;;;;;7.44;49.74;100797.41;117437;1186;21835;-58
2022/02/20 04:26:15;;;;;;;;;;;;;;;7.39;49.52;100801.39;117439;1183;21835;-58
2022/02/20 04:28:44;;;;;;;;;;;;;;;7.34;49.55;100804.48;117447;1182;23555;-54
2022/02/20 04:31:12;;;;;;;;;;;;;;;7.29;49.70;100802.36;117552;1183;21839;-58
2022/02/20 04:33:41;;;;;;;;;;;;;;;7.25;49.74;100802.16;117369;1183;21838;-55
2022/02/20 04:36:10;;;;;;;;;;;;;;;7.21;49.60;100809.63;117475;1182;21864;-55
2022/02/20 04:38:39;;;;;;;;;;;;;;;7.17;49.49;100819.19;117406;1183;23416;-58
2022/02/20 04:41:07;;;;;;;;;;;;;;;7.11;49.51;100820.36;117279;1182;22805;-54
2022/02/20 04:43:35;;;;;;;;;;;;;;;7.05;49.46;100822.41;117466;1183;23411;-55
2022/02/20 04:46:04;;;;;;;;;;;;;;;6.98;49.58;100821.81;117359;1185;21835;-55
2022/02/20 04:48:33;;;;;;;;;;;;;;;6.92;49.51;100825.94;117345;1185;23416;-55
2022/02/20 04:51:00;;;;;;;;;;;;;;;6.88;49.74;100828.52;117483;1182;23541;-55
2022/02/20 04:53:29;;;;;;;;;;;;;;;6.86;49.79;100829.36;117435;1183;21838;-54
2022/02/20 04:55:57;;;;;;;;;;;;;;;6.82;49.46;100834.75;117356;1182;23518;-55
2022/02/20 04:58:25;;;;;;;;;;;;;;;6.80;49.63;100838.20;117364;1182;21846;-54
2022/02/20 05:00:53;;;;;;;;;;;;;;;6.78;49.82;100839.76;117411;1183;21836;-55
2022/02/20 05:03:21;;;;;;;;;;;;;;;6.76;49.56;100845.14;117454;1182;21844;-54
2022/02/20 05:05:50;;;;;;;;;;;;;;;6.76;49.83;100850.20;117452;1182;23515;-58
2022/02/20 05:08:18;;;;;;;;;;;;;;;6.77;49.78;100851.62;117391;1182;22791;-55
2022/02/20 05:10:46;;;;;;;;;;;;;;;6.77;49.60;100853.35;117406;1182;21844;-53
2022/02/20 05:13:14;;;;;;;;;;;;;;;6.78;49.60;100857.02;117346;1182;23448;-54
2022/02/20 05:15:47;;;;;;;;;;;;;;;6.80;49.77;100864.02;117406;1185;23466;-57
2022/02/20 05:18:15;;;;;;;;;;;;;;;6.80;49.88;100869.79;117377;1185;21830;-59
2022/02/20 05:20:43;;;;;;;;;;;;;;;6.79;49.75;100865.94;117315;1185;21838;-59
2022/02/20 05:23:11;;;;;;;;;;;;;;;6.78;49.61;100864.52;117413;1183;22908;-55
2022/02/20 05:25:39;;;;;;;;;;;;;;;6.77;49.70;100865.02;117403;1183;23413;-58
2022/02/20 05:28:07;;;;;;;;;;;;;;;6.74;49.73;100865.35;117423;1186;21835;-58
2022/02/20 05:30:36;;;;;;;;;;;;;;;6.72;50.00;100868.29;117402;1186;21836;-56
2022/02/20 05:33:04;;;;;;;;;;;;;;;6.70;49.92;100866.18;117403;1185;22884;-55
2022/02/20 05:35:34;;;;;;;;;;;;;;;6.70;49.81;100866.17;117435;1185;21836;-55
2022/02/20 05:38:02;;;;;;;;;;;;;;;6.68;49.90;100868.59;117398;1182;21889;-58
2022/02/20 05:40:31;;;;;;;;;;;;;;;6.66;49.66;100871.70;117412;1176;23520;-58
2022/02/20 05:42:59;;;;;;;;;;;;;;;6.62;49.81;100872.36;117474;1183;23515;-59
2022/02/20 05:45:27;;;;;;;;;;;;;;;6.61;49.68;100872.36;117427;1182;23621;-59
2022/02/20 05:47:55;;;;;;;;;;;;;;;6.62;49.67;100866.96;117377;1182;23505;-59
2022/02/20 05:50:24;;;;;;;;;;;;;;;6.62;49.64;100864.35;117438;1176;23430;-59
2022/02/20 05:52:53;;;;;;;;;;;;;;;6.59;49.60;100865.02;117354;1186;21838;-58
2022/02/20 05:55:20;;;;;;;;;;;;;;;6.59;49.71;100870.58;117323;1186;21838;-55
2022/02/20 05:57:49;;;;;;;;;;;;;;;6.59;49.77;100868.15;117336;1186;22812;-58
2022/02/20 06:00:37;;;;;;;;;;;;;;;6.61;49.62;100866.44;117243;1185;21905;-59
2022/02/20 06:03:06;;;;;;;;;;;;;;;6.64;49.80;100864.88;117855;1185;21845;-58
2022/02/20 06:05:34;;;;;;;;;;;;;;;6.65;49.87;100861.05;117743;1184;21842;-59
2022/02/20 06:08:02;;;;;;;;;;;;;;;6.69;50.02;100858.84;117424;1185;21839;-57
2022/02/20 06:10:30;;;;;;;;;;;;;;;6.76;50.01;100864.85;117444;1182;21848;-56
2022/02/20 06:12:58;;;;;;;;;;;;;;;6.89;50.25;100865.33;117413;1183;21852;-57
2022/02/20 06:15:27;;;;;;;;;;;;;;;7.01;50.44;100866.86;117412;1182;21899;-56
2022/02/20 06:17:59;;;;;;;;;;;;;;;7.10;50.63;100869.56;117384;1182;22635;-57
2022/02/20 06:20:27;;;;;;;;;;;;;;;7.24;50.25;100873.89;117443;1182;21962;-57
2022/02/20 06:22:58;;;;;;;;;;;;;;;7.37;50.52;100872.60;117456;1182;24120;-56
2022/02/20 06:25:26;;;;;;;;;;;;;;;7.49;50.34;100869.91;117392;1185;21839;-57
2022/02/20 06:27:54;;;;;;;;;;;;;;;7.58;50.27;100874.00;117337;1183;23406;-57
2022/02/20 06:30:22;;;;;;;;;;;;;;;7.66;50.31;100873.53;117414;1182;21867;-56
2022/02/20 06:32:50;;;;;;;;;;;;;;;7.69;50.43;100876.02;117386;1182;23439;-56
2022/02/20 06:35:18;;;;;;;;;;;;;;;7.67;50.21;100875.30;117399;1183;23440;-59
2022/02/20 06:37:55;;;;;;;;;;;;;;;7.63;50.03;100876.66;117338;1183;24116;-55
2022/02/20 06:40:23;;;;;;;;;;;;;;;7.59;50.17;100879.41;117352;1182;23426;-59
2022/02/20 06:42:52;;;;;;;;;;;;;;;7.55;50.02;100875.55;117333;1187;24140;-62
2022/02/20 06:45:20;;;;;;;;;;;;;;;7.51;49.97;100870.98;117413;1182;21965;-56
2022/02/20 06:47:48;;;;;;;;;;;;;;;7.47;50.07;100865.37;117366;1186;21891;-56
2022/02/20 06:50:16;;;;;;;;;;;;;;;7.47;50.10;100865.54;117404;1182;23440;-58
2022/02/20 06:52:45;;;;;;;;;;;;;;;7.48;50.24;100863.46;117352;1185;23421;-59
2022/02/20 06:55:13;;;;;;;;;;;;;;;7.50;50.06;100862.42;117403;1188;23428;-55
2022/02/20 06:57:41;;;;;;;;;;;;;;;7.51;49.92;100861.20;117432;1186;21829;-58
2022/02/20 07:00:10;;;;;;;;;;;;;;;7.50;50.22;100862.77;117431;1182;23420;-58
2022/02/20 07:02:39;;;;;;;;;;;;;;;7.52;50.42;100864.52;117379;1185;21838;-56
2022/02/20 07:05:07;;;;;;;;;;;;;;;7.57;50.19;100862.81;117185;1186;22962;-55
2022/02/20 07:07:37;;;;;;;;;;;;;;;7.61;50.42;100856.73;117431;1186;21840;-55
2022/02/20 07:10:07;;;;;;;;;;;;;;;7.63;50.25;100856.58;117452;1186;22909;-60
2022/02/20 07:12:36;;;;;;;;;;;;;;;7.66;50.34;100850.83;117380;1182;23474;-58
2022/02/20 07:15:05;;;;;;;;;;;;;;;7.71;50.39;100851.74;117406;1185;22059;-59
2022/02/20 07:17:33;;;;;;;;;;;;;;;7.79;50.35;100856.16;117396;1185;21838;-60
2022/02/20 07:20:03;;;;;;;;;;;;;;;7.87;50.46;100853.61;117355;1185;21879;-57
2022/02/20 07:22:32;;;;;;;;;;;;;;;7.93;50.56;100848.21;117393;1185;21838;-55
2022/02/20 07:25:00;;;;;;;;;;;;;;;7.97;50.62;100847.36;117298;1183;23138;-56
2022/02/20 07:27:41;;;;;;;;;;;;;;;8.01;50.50;100846.35;117419;1182;21847;-56
2022/02/20 07:30:09;;;;;;;;;;;;;;;8.09;50.57;100853.20;117440;1182;23413;-59
2022/02/20 07:32:38;;;;;;;;;;;;;;;8.13;50.53;100851.13;117389;1183;24134;-56
2022/02/20 07:35:07;;;;;;;;;;;;;;;8.20;50.48;100852.91;117456;1186;21838;-59
2022/02/20 07:37:35;;;;;;;;;;;;;;;8.29;50.74;100854.35;117454;1185;21829;-56
2022/02/20 07:40:04;;;;;;;;;;;;;;;8.35;50.54;100850.02;117366;1184;22605;-55
2022/02/20 07:42:35;;;;;;;;;;;;;;;8.43;50.62;100848.29;117369;1186;23670;-56
2022/02/20 07:45:04;;;;;;;;;;;;;;;8.49;50.62;100845.53;117401;1186;23436;-59
2022/02/20 07:47:51;;;;;;;;;;;;;;;8.55;50.67;100849.42;117352;1185;22915;-59
2022/02/20 07:50:20;;;;;;;;;;;;;;;8.62;50.51;100847.70;117518;1185;23653;-58
2022/02/20 07:52:48;;;;;;;;;;;;;;;8.73;50.65;100847.91;117324;1185;23420;-59
2022/02/20 07:55:17;;;;;;;;;;;;;;;8.80;50.70;100842.68;117342;1182;24244;-58
2022/02/20 07:57:45;;;;;;;;;;;;;;;8.89;50.65;100840.06;117440;1185;21843;-57
2022/02/20 08:00:14;;;;;;;;;;;;;;;8.98;50.50;100840.79;117442;1185;23433;-57
2022/02/20 08:02:42;;;;;;;;;;;;;;;9.08;50.75;100842.20;117433;1183;23503;-56
2022/02/20 08:05:11;;;;;;;;;;;;;;;9.19;50.74;100846.08;117393;1182;21826;-56
2022/02/20 08:07:39;;;;;;;;;;;;;;;9.29;50.47;100841.34;117385;1186;21844;-58
2022/02/20 08:10:07;;;;;;;;;;;;;;;9.35;50.60;100836.27;117429;1185;21839;-58
2022/02/20 08:12:37;;;;;;;;;;;;;;;9.45;50.58;100841.88;117381;1185;21839;-56
2022/02/20 08:15:05;;;;;;;;;;;;;;;9.55;50.67;100838.53;117414;1185;22093;-57
2022/02/20 08:17:33;;;;;;;;;;;;;;;9.66;50.60;100836.59;117453;1185;21838;-58
2022/02/20 08:20:02;;;;;;;;;;;;;;;9.74;50.53;100832.90;117432;1182;21839;-55
2022/02/20 08:22:30;;;;;;;;;;;;;;;9.81;50.60;100829.38;117430;1182;21838;-56
2022/02/20 08:24:58;;;;;;;;;;;;;;;9.90;50.61;100824.98;117410;1182;23541;-56
2022/02/20 08:27:27;;;;;;;;;;;;;;;10.00;50.58;100827.59;117398;1186;21845;-55
2022/02/20 08:29:55;;;;;;;;;;;;;;;10.09;50.43;100824.94;117400;1185;23416;-58
2022/02/20 08:32:23;;;;;;;;;;;;;;;10.22;50.57;100825.59;117490;1186;23531;-55
2022/02/20 08:34:51;;;;;;;;;;;;;;;10.34;50.57;100823.10;117402;1183;22424;-56
2022/02/20 08:37:19;;;;;;;;;;;;;;;10.47;50.55;100819.90;117330;1183;24146;-56
2022/02/20 08:39:48;;;;;;;;;;;;;;;10.64;50.90;100818.24;117387;1183;21842;-55
2022/02/20 08:42:16;;;;;;;;;;;;;;;10.83;50.82;100811.46;117414;1183;24126;-55
2022/02/20 08:44:45;;;;;;;;;;;;;;;11.02;50.84;100808.00;117806;1186;23696;-56
2022/02/20 08:47:13;;;;;;;;;;;;;;;11.16;50.63;100799.81;117407;1186;24136;-59
2022/02/20 08:49:41;;;;;;;;;;;;;;;11.31;50.87;100798.10;117333;1185;24200;-59
2022/02/20 08:52:11;;;;;;;;;;;;;;;11.48;50.98;100798.66;117477;1184;24133;-56
2022/02/20 08:54:40;;;;;;;;;;;;;;;11.65;50.84;100794.46;117399;1176;23248;-56
2022/02/20 08:57:09;;;;;;;;;;;;;;;11.80;50.84;100791.66;117453;1182;24131;-57
2022/02/20 08:59:38;;;;;;;;;;;;;;;11.93;50.78;100791.70;117309;1176;21846;-59
2022/02/20 09:02:06;;;;;;;;;;;;;;;12.06;51.07;100791.75;117403;1182;23510;-58
2022/02/20 09:04:37;;;;;;;;;;;;;;;12.24;51.12;100793.48;117477;1186;21859;-56
2022/02/20 09:07:05;;;;;;;;;;;;;;;12.44;51.14;100788.11;117398;1186;23791;-56
2022/02/20 09:09:33;;;;;;;;;;;;;;;12.63;51.05;100786.09;117406;1185;24136;-55
2022/02/20 09:12:03;;;;;;;;;;;;;;;12.83;51.07;100784.73;117378;1183;22889;-58
2022/02/20 09:14:31;;;;;;;;;;;;;;;13.05;51.19;100780.52;117382;1182;21838;-57
2022/02/20 09:17:00;;;;;;;;;;;;;;;13.25;51.36;100778.27;117424;1177;21843;-58
2022/02/20 09:19:28;;;;;;;;;;;;;;;13.46;51.16;100774.75;117400;1183;23414;-56
2022/02/20 09:21:57;;;;;;;;;;;;;;;13.62;51.08;100770.95;117469;1182;21846;-58
2022/02/20 09:24:26;;;;;;;;;;;;;;;13.80;51.10;100767.09;118756;1185;21971;-57
2022/02/20 09:26:54;;;;;;;;;;;;;;;14.05;51.04;100764.09;117359;1183;23238;-56
2022/02/20 09:29:24;;;;;;;;;;;;;;;14.24;50.90;100765.66;117434;1182;23518;-57
2022/02/20 09:31:55;;;;;;;;;;;;;;;14.35;50.78;100764.90;117316;1182;21847;-58
2022/02/20 09:34:23;;;;;;;;;;;;;;;14.42;50.75;100761.04;117328;1183;23417;-56
2022/02/20 09:36:52;;;;;;;;;;;;;;;14.59;50.83;100765.43;117318;1182;21973;-57
2022/02/20 09:39:21;;;;;;;;;;;;;;;14.62;50.19;100767.11;117324;1182;23522;-59
2022/02/20 09:41:49;;;;;;;;;;;;;;;14.54;50.11;100765.19;117386;1183;21838;-59
2022/02/20 09:44:18;;;;;;;;;;;;;;;14.58;50.22;100758.73;117388;1182;21838;-56
2022/02/20 09:46:46;;;;;;;;;;;;;;;14.70;50.28;100756.19;117407;1182;23486;-57
2022/02/20 09:49:14;;;;;;;;;;;;;;;14.80;50.17;100750.30;117380;1185;23446;-57
2022/02/20 09:51:42;;;;;;;;;;;;;;;14.76;49.93;100740.16;117386;1185;23603;-57
2022/02/20 09:54:10;;;;;;;;;;;;;;;14.66;49.67;100736.13;117219;1185;22003;-59
2022/02/20 09:56:39;;;;;;;;;;;;;;;14.50;49.07;100738.61;117376;1185;23443;-59
2022/02/20 09:59:09;;;;;;;;;;;;;;;14.29;49.07;100739.08;117452;1185;22626;-57
2022/02/20 10:01:58;;;;;;;;;;;;;;;14.26;49.37;100737.55;117426;1185;21835;-57
2022/02/20 10:04:48;;;;;;;;;;;;;;;14.36;49.59;100738.73;117402;1182;21992;-57
2022/02/20 10:07:26;;;;;;;;;;;;;;;14.58;49.91;100737.90;117517;1185;23541;-57
2022/02/20 10:09:54;;;;;;;;;;;;;;;14.83;49.79;100731.86;117445;1185;23628;-58
2022/02/20 10:12:24;;;;;;;;;;;;;;;15.11;50.19;100733.13;117427;1183;22909;-59
2022/02/20 10:14:52;;;;;;;;;;;;;;;15.41;49.96;100736.23;117412;1185;21851;-57
2022/02/20 10:17:25;;;;;;;;;;;;;;;15.52;49.44;100731.17;117378;1185;21850;-59
2022/02/20 10:19:57;;;;;;;;;;;;;;;15.52;49.29;100722.33;117303;1185;22901;-56
2022/02/20 10:22:35;;;;;;;;;;;;;;;15.63;49.42;100715.30;117353;1185;22935;-59
2022/02/20 10:25:04;;;;;;;;;;;;;;;15.78;49.21;100714.70;117410;1186;22597;-57
2022/02/20 10:27:33;;;;;;;;;;;;;;;15.76;48.94;100707.52;117395;1183;21842;-58
2022/02/20 10:30:09;;;;;;;;;;;;;;;15.80;49.19;100700.33;117401;1183;22316;-56
2022/02/20 10:32:38;;;;;;;;;;;;;;;15.92;49.01;100692.92;117407;1186;21870;-59
2022/02/20 10:35:10;;;;;;;;;;;;;;;15.92;48.68;100690.63;117413;1186;21846;-56
2022/02/20 10:37:38;;;;;;;;;;;;;;;15.80;48.39;100689.70;117356;1185;24114;-59
2022/02/20 10:40:23;;;;;;;;;;;;;;;15.76;48.70;100687.15;117418;1185;22908;-56
2022/02/20 10:42:52;;;;;;;;;;;;;;;15.81;48.67;100685.08;117396;1183;24156;-56
2022/02/20 10:45:23;;;;;;;;;;;;;;;15.71;48.41;100685.17;117522;1185;21848;-59
2022/02/20 10:47:54;;;;;;;;;;;;;;;15.60;48.21;100687.60;117355;1182;21848;-56
2022/02/20 10:50:23;;;;;;;;;;;;;;;15.45;47.95;100683.95;117362;1185;24691;-57
2022/02/20 10:53:08;;;;;;;;;;;;;;;15.37;48.00;100685.77;117385;1185;21847;-56
2022/02/20 10:55:37;;;;;;;;;;;;;;;15.34;47.99;100683.55;117403;1185;21838;-59
2022/02/20 10:58:09;;;;;;;;;;;;;;;15.34;47.91;100676.13;117443;1185;21839;-57
2022/02/20 11:00:45;;;;;;;;;;;;;;;15.33;47.64;100673.52;117412;1185;21919;-57
2022/02/20 11:03:15;;;;;;;;;;;;;;;15.27;47.70;100668.52;117458;1186;22909;-59
2022/02/20 11:05:44;;;;;;;;;;;;;;;15.29;47.78;100663.89;117440;1182;21846;-60
2022/02/20 11:08:12;;;;;;;;;;;;;;;15.37;47.83;100664.39;117450;1182;21835;-56
2022/02/20 11:10:41;;;;;;;;;;;;;;;15.48;47.95;100661.95;117468;1185;21839;-55
2022/02/20 11:13:11;;;;;;;;;;;;;;;15.51;47.67;100658.17;117452;1185;23471;-58
2022/02/20 11:15:41;;;;;;;;;;;;;;;15.51;47.56;100657.11;117424;1185;22781;-57
2022/02/20 11:18:09;;;;;;;;;;;;;;;15.49;47.46;100655.56;117430;1182;21838;-60
2022/02/20 11:20:39;;;;;;;;;;;;;;;15.40;47.15;100653.34;117354;1185;22908;-57
2022/02/20 11:23:07;;;;;;;;;;;;;;;15.27;47.27;100654.77;117462;1182;21835;-56
2022/02/20 11:25:36;;;;;;;;;;;;;;;15.23;47.05;100658.73;117431;1184;22919;-57
2022/02/20 11:28:04;;;;;;;;;;;;;;;15.17;46.85;100660.52;117436;1183;21838;-57
2022/02/20 11:30:34;;;;;;;;;;;;;;;15.06;46.96;100654.77;117426;1185;21838;-57
2022/02/20 11:33:07;;;;;;;;;;;;;;;15.06;47.14;100644.89;117434;1186;22307;-60
2022/02/20 11:35:42;;;;;;;;;;;;;;;15.13;47.10;100640.27;117423;1185;21885;-60
2022/02/20 11:38:10;;;;;;;;;;;;;;;15.09;46.64;100641.27;117432;1185;22925;-57
2022/02/20 11:40:58;;;;;;;;;;;;;;;14.91;46.56;100629.37;117422;1182;22912;-60
2022/02/20 11:43:39;;;;;;;;;;;;;;;14.77;46.59;100626.73;117409;1183;23417;-60
2022/02/20 11:46:11;;;;;;;;;;;;;;;14.65;46.62;100623.47;117365;1183;21896;-60
2022/02/20 11:48:59;;;;;;;;;;;;;;;14.65;46.59;100620.13;117382;1182;24127;-57
2022/02/20 11:51:32;;;;;;;;;;;;;;;14.58;46.42;100620.66;117407;1186;22911;-60
2022/02/20 11:54:11;;;;;;;;;;;;;;;14.45;46.27;100615.66;117438;1182;24138;-60
2022/02/20 11:56:39;;;;;;;;;;;;;;;14.36;46.37;100614.98;117441;1185;21841;-57
2022/02/20 11:59:14;;;;;;;;;;;;;;;14.24;45.94;100608.23;117401;1185;21839;-57
2022/02/20 12:02:02;;;;;;;;;;;;;;;14.12;46.22;100601.45;117429;1186;23515;-58
2022/02/20 12:04:50;;;;;;;;;;;;;;;14.07;46.43;100596.45;117376;1185;22925;-57
2022/02/20 12:07:28;;;;;;;;;;;;;;;14.04;46.27;100594.58;117368;1183;23537;-59
2022/02/20 12:10:16;;;;;;;;;;;;;;;14.07;46.02;100589.93;117244;1182;21845;-59
2022/02/20 12:12:48;;;;;;;;;;;;;;;14.00;45.92;100587.08;117344;1185;21843;-60
2022/02/20 12:15:35;;;;;;;;;;;;;;;13.89;45.96;100581.86;117382;1185;23529;-57
2022/02/20 12:18:12;;;;;;;;;;;;;;;13.81;45.96;100580.98;117390;1189;21840;-58
2022/02/20 12:20:49;;;;;;;;;;;;;;;13.77;46.08;100574.55;117346;1185;22160;-59
2022/02/20 12:23:31;;;;;;;;;;;;;;;13.74;45.89;100574.25;117450;1185;21829;-59
2022/02/20 12:26:07;;;;;;;;;;;;;;;13.65;45.40;100576.39;117435;1185;22622;-59
2022/02/20 12:28:39;;;;;;;;;;;;;;;13.53;45.20;100571.37;117344;1185;22973;-59
2022/02/20 12:31:13;;;;;;;;;;;;;;;13.46;45.51;100570.28;117346;1182;21866;-57
2022/02/20 12:33:45;;;;;;;;;;;;;;;13.44;45.47;100569.64;117349;1182;23522;-59
2022/02/20 12:36:14;;;;;;;;;;;;;;;13.40;45.24;100563.70;117391;1182;21839;-57
2022/02/20 12:38:49;;;;;;;;;;;;;;;13.35;44.92;100563.23;117370;1185;21916;-60
2022/02/20 12:41:17;;;;;;;;;;;;;;;13.31;45.34;100558.74;117364;1185;23518;-57
2022/02/20 12:43:53;;;;;;;;;;;;;;;13.31;45.22;100554.52;117484;1185;24223;-59
2022/02/20 12:46:22;;;;;;;;;;;;;;;13.32;45.31;100546.56;117407;1185;23878;-56